sensor_id;sensor_type;location;lat;lon;timestamp;P1;durP1;ratioP1;P2;durP2;ratioP2
52268;SDS011;38224;50.950;4.100;2023-03-01T00:00:40;25.73;;;14.17;;
52268;SDS011;38224;50.950;4.100;2023-03-01T00:03:06;28.93;;;15.30;;
52268;SDS011;38224;50.950;4.100;2023-03-01T00:05:31;24.25;;;14.18;;
52268;SDS011;38224;50.950;4.100;2023-03-01T00:07:57;25.55;;;15.68;;
52268;SDS011;38224;50.950;4.100;2023-03-01T00:10:22;28.92;;;15.75;;
52268;SDS011;38224;50.950;4.100;2023-03-01T00:12:47;30.77;;;14.50;;
52268;SDS011;38224;50.950;4.100;2023-03-01T00:15:12;28.80;;;15.27;;
52268;SDS011;38224;50.950;4.100;2023-03-01T00:17:38;26.17;;;16.13;;
52268;SDS011;38224;50.950;4.100;2023-03-01T00:20:03;21.67;;;14.23;;
52268;SDS011;38224;50.950;4.100;2023-03-01T00:22:32;25.50;;;15.25;;
52268;SDS011;38224;50.950;4.100;2023-03-01T00:24:58;33.03;;;15.05;;
52268;SDS011;38224;50.950;4.100;2023-03-01T00:27:23;25.47;;;14.77;;
52268;SDS011;38224;50.950;4.100;2023-03-01T00:29:48;28.93;;;15.30;;
52268;SDS011;38224;50.950;4.100;2023-03-01T00:32:13;30.43;;;15.00;;
52268;SDS011;38224;50.950;4.100;2023-03-01T00:34:39;25.53;;;15.17;;
52268;SDS011;38224;50.950;4.100;2023-03-01T00:37:04;25.03;;;15.67;;
52268;SDS011;38224;50.950;4.100;2023-03-01T00:39:30;25.60;;;14.65;;
52268;SDS011;38224;50.950;4.100;2023-03-01T00:41:56;25.60;;;14.63;;
52268;SDS011;38224;50.950;4.100;2023-03-01T00:44:21;23.17;;;14.85;;
52268;SDS011;38224;50.950;4.100;2023-03-01T00:46:46;25.17;;;15.60;;
52268;SDS011;38224;50.950;4.100;2023-03-01T00:49:12;26.37;;;15.37;;
52268;SDS011;38224;50.950;4.100;2023-03-01T00:51:37;23.70;;;14.23;;
52268;SDS011;38224;50.950;4.100;2023-03-01T00:54:04;24.48;;;14.43;;
52268;SDS011;38224;50.950;4.100;2023-03-01T00:56:29;26.38;;;13.98;;
52268;SDS011;38224;50.950;4.100;2023-03-01T00:58:55;23.08;;;14.13;;
52268;SDS011;38224;50.950;4.100;2023-03-01T01:01:21;21.23;;;12.90;;
52268;SDS011;38224;50.950;4.100;2023-03-01T01:06:22;27.30;;;13.83;;
52268;SDS011;38224;50.950;4.100;2023-03-01T01:08:48;18.73;;;13.27;;
52268;SDS011;38224;50.950;4.100;2023-03-01T01:11:14;22.52;;;14.20;;
52268;SDS011;38224;50.950;4.100;2023-03-01T01:13:39;19.80;;;13.25;;
52268;SDS011;38224;50.950;4.100;2023-03-01T01:16:05;22.08;;;13.20;;
52268;SDS011;38224;50.950;4.100;2023-03-01T01:18:30;21.35;;;13.52;;
52268;SDS011;38224;50.950;4.100;2023-03-01T01:20:56;24.92;;;13.43;;
52268;SDS011;38224;50.950;4.100;2023-03-01T01:23:21;18.52;;;11.80;;
52268;SDS011;38224;50.950;4.100;2023-03-01T01:25:46;22.75;;;12.00;;
52268;SDS011;38224;50.950;4.100;2023-03-01T01:28:12;16.97;;;11.60;;
52268;SDS011;38224;50.950;4.100;2023-03-01T01:30:37;23.30;;;12.80;;
52268;SDS011;38224;50.950;4.100;2023-03-01T01:33:02;22.27;;;13.10;;
52268;SDS011;38224;50.950;4.100;2023-03-01T01:35:27;20.60;;;12.63;;
52268;SDS011;38224;50.950;4.100;2023-03-01T01:37:53;24.10;;;14.02;;
52268;SDS011;38224;50.950;4.100;2023-03-01T01:40:18;21.20;;;12.93;;
52268;SDS011;38224;50.950;4.100;2023-03-01T01:42:43;20.27;;;11.98;;
52268;SDS011;38224;50.950;4.100;2023-03-01T01:45:42;20.30;;;12.17;;
52268;SDS011;38224;50.950;4.100;2023-03-01T01:48:04;20.35;;;12.38;;
52268;SDS011;38224;50.950;4.100;2023-03-01T01:50:31;19.00;;;11.73;;
52268;SDS011;38224;50.950;4.100;2023-03-01T01:53:10;20.48;;;12.85;;
52268;SDS011;38224;50.950;4.100;2023-03-01T01:55:39;20.17;;;11.25;;
52268;SDS011;38224;50.950;4.100;2023-03-01T01:58:05;21.55;;;11.65;;
52268;SDS011;38224;50.950;4.100;2023-03-01T02:00:32;20.23;;;12.25;;
52268;SDS011;38224;50.950;4.100;2023-03-01T02:03:05;21.55;;;12.93;;
52268;SDS011;38224;50.950;4.100;2023-03-01T02:05:34;19.73;;;12.27;;
52268;SDS011;38224;50.950;4.100;2023-03-01T02:07:59;20.90;;;11.82;;
52268;SDS011;38224;50.950;4.100;2023-03-01T02:10:25;23.77;;;13.50;;
52268;SDS011;38224;50.950;4.100;2023-03-01T02:12:52;20.67;;;12.73;;
52268;SDS011;38224;50.950;4.100;2023-03-01T02:15:18;19.98;;;12.45;;
52268;SDS011;38224;50.950;4.100;2023-03-01T02:17:44;20.63;;;12.82;;
52268;SDS011;38224;50.950;4.100;2023-03-01T02:20:18;21.52;;;12.57;;
52268;SDS011;38224;50.950;4.100;2023-03-01T02:22:46;26.42;;;12.82;;
52268;SDS011;38224;50.950;4.100;2023-03-01T02:30:28;21.75;;;13.32;;
52268;SDS011;38224;50.950;4.100;2023-03-01T02:32:55;20.10;;;13.10;;
52268;SDS011;38224;50.950;4.100;2023-03-01T02:35:27;20.13;;;12.57;;
52268;SDS011;38224;50.950;4.100;2023-03-01T02:37:53;28.08;;;13.73;;
52268;SDS011;38224;50.950;4.100;2023-03-01T02:40:25;22.80;;;13.80;;
52268;SDS011;38224;50.950;4.100;2023-03-01T02:42:54;25.07;;;13.93;;
52268;SDS011;38224;50.950;4.100;2023-03-01T02:45:20;26.60;;;14.77;;
52268;SDS011;38224;50.950;4.100;2023-03-01T02:47:46;30.70;;;13.32;;
52268;SDS011;38224;50.950;4.100;2023-03-01T02:53:11;23.83;;;13.05;;
52268;SDS011;38224;50.950;4.100;2023-03-01T02:55:37;25.65;;;13.13;;
52268;SDS011;38224;50.950;4.100;2023-03-01T02:58:03;21.55;;;12.45;;
52268;SDS011;38224;50.950;4.100;2023-03-01T03:00:31;31.77;;;12.80;;
52268;SDS011;38224;50.950;4.100;2023-03-01T03:02:58;24.05;;;12.90;;
52268;SDS011;38224;50.950;4.100;2023-03-01T03:05:24;22.60;;;12.25;;
52268;SDS011;38224;50.950;4.100;2023-03-01T03:07:50;21.00;;;13.68;;
52268;SDS011;38224;50.950;4.100;2023-03-01T03:10:20;25.73;;;13.98;;
52268;SDS011;38224;50.950;4.100;2023-03-01T03:12:53;18.73;;;12.30;;
52268;SDS011;38224;50.950;4.100;2023-03-01T03:15:18;22.65;;;13.68;;
52268;SDS011;38224;50.950;4.100;2023-03-01T03:17:45;21.77;;;13.02;;
52268;SDS011;38224;50.950;4.100;2023-03-01T03:20:11;18.13;;;12.03;;
52268;SDS011;38224;50.950;4.100;2023-03-01T03:22:39;23.17;;;13.57;;
52268;SDS011;38224;50.950;4.100;2023-03-01T03:25:05;24.02;;;12.70;;
52268;SDS011;38224;50.950;4.100;2023-03-01T03:27:35;20.73;;;12.38;;
52268;SDS011;38224;50.950;4.100;2023-03-01T03:30:00;24.20;;;11.45;;
52268;SDS011;38224;50.950;4.100;2023-03-01T03:32:25;20.87;;;12.03;;
52268;SDS011;38224;50.950;4.100;2023-03-01T03:34:51;28.57;;;12.53;;
52268;SDS011;38224;50.950;4.100;2023-03-01T03:37:16;18.25;;;11.80;;
52268;SDS011;38224;50.950;4.100;2023-03-01T03:40:00;28.83;;;13.70;;
52268;SDS011;38224;50.950;4.100;2023-03-01T03:42:25;21.05;;;12.35;;
52268;SDS011;38224;50.950;4.100;2023-03-01T03:44:50;25.27;;;12.18;;
52268;SDS011;38224;50.950;4.100;2023-03-01T03:47:15;18.47;;;11.47;;
52268;SDS011;38224;50.950;4.100;2023-03-01T03:49:41;23.00;;;12.57;;
52268;SDS011;38224;50.950;4.100;2023-03-01T03:52:06;22.30;;;13.57;;
52268;SDS011;38224;50.950;4.100;2023-03-01T03:54:38;19.70;;;12.48;;
52268;SDS011;38224;50.950;4.100;2023-03-01T03:57:03;20.40;;;13.02;;
52268;SDS011;38224;50.950;4.100;2023-03-01T03:59:29;19.93;;;12.13;;
52268;SDS011;38224;50.950;4.100;2023-03-01T04:01:54;23.67;;;13.47;;
52268;SDS011;38224;50.950;4.100;2023-03-01T04:04:19;16.87;;;11.83;;
52268;SDS011;38224;50.950;4.100;2023-03-01T04:06:44;21.47;;;12.60;;
52268;SDS011;38224;50.950;4.100;2023-03-01T04:09:10;26.60;;;14.20;;
52268;SDS011;38224;50.950;4.100;2023-03-01T04:11:35;23.17;;;12.83;;
52268;SDS011;38224;50.950;4.100;2023-03-01T04:14:00;24.73;;;12.80;;
52268;SDS011;38224;50.950;4.100;2023-03-01T04:16:25;27.40;;;13.40;;
52268;SDS011;38224;50.950;4.100;2023-03-01T04:18:51;20.38;;;12.40;;
52268;SDS011;38224;50.950;4.100;2023-03-01T04:21:18;23.05;;;12.90;;
52268;SDS011;38224;50.950;4.100;2023-03-01T04:23:45;27.27;;;13.27;;
52268;SDS011;38224;50.950;4.100;2023-03-01T04:26:10;24.42;;;12.35;;
52268;SDS011;38224;50.950;4.100;2023-03-01T04:28:37;25.53;;;13.33;;
52268;SDS011;38224;50.950;4.100;2023-03-01T04:31:04;22.45;;;12.55;;
52268;SDS011;38224;50.950;4.100;2023-03-01T04:33:38;19.02;;;13.10;;
52268;SDS011;38224;50.950;4.100;2023-03-01T04:36:03;19.63;;;12.90;;
52268;SDS011;38224;50.950;4.100;2023-03-01T04:38:30;24.17;;;12.48;;
52268;SDS011;38224;50.950;4.100;2023-03-01T04:40:55;19.58;;;13.02;;
52268;SDS011;38224;50.950;4.100;2023-03-01T04:43:21;22.25;;;12.45;;
52268;SDS011;38224;50.950;4.100;2023-03-01T04:45:46;21.00;;;13.25;;
52268;SDS011;38224;50.950;4.100;2023-03-01T04:48:11;25.27;;;13.45;;
52268;SDS011;38224;50.950;4.100;2023-03-01T04:50:36;23.70;;;12.77;;
52268;SDS011;38224;50.950;4.100;2023-03-01T04:53:02;23.07;;;13.00;;
52268;SDS011;38224;50.950;4.100;2023-03-01T04:55:27;22.23;;;12.95;;
52268;SDS011;38224;50.950;4.100;2023-03-01T04:57:53;26.95;;;13.18;;
52268;SDS011;38224;50.950;4.100;2023-03-01T05:00:19;23.33;;;12.63;;
52268;SDS011;38224;50.950;4.100;2023-03-01T05:02:51;26.35;;;14.20;;
52268;SDS011;38224;50.950;4.100;2023-03-01T05:05:22;18.92;;;12.90;;
52268;SDS011;38224;50.950;4.100;2023-03-01T05:07:50;23.70;;;13.50;;
52268;SDS011;38224;50.950;4.100;2023-03-01T05:10:15;26.05;;;13.45;;
52268;SDS011;38224;50.950;4.100;2023-03-01T05:12:40;23.87;;;14.67;;
52268;SDS011;38224;50.950;4.100;2023-03-01T05:15:06;23.48;;;12.98;;
52268;SDS011;38224;50.950;4.100;2023-03-01T05:17:32;24.13;;;13.23;;
52268;SDS011;38224;50.950;4.100;2023-03-01T05:19:57;27.10;;;13.02;;
52268;SDS011;38224;50.950;4.100;2023-03-01T05:22:24;24.33;;;13.90;;
52268;SDS011;38224;50.950;4.100;2023-03-01T05:24:50;26.67;;;13.82;;
52268;SDS011;38224;50.950;4.100;2023-03-01T05:27:15;23.10;;;13.30;;
52268;SDS011;38224;50.950;4.100;2023-03-01T05:29:40;24.03;;;14.00;;
52268;SDS011;38224;50.950;4.100;2023-03-01T05:32:05;27.77;;;13.07;;
52268;SDS011;38224;50.950;4.100;2023-03-01T05:34:32;30.67;;;13.98;;
52268;SDS011;38224;50.950;4.100;2023-03-01T05:36:58;27.02;;;13.57;;
52268;SDS011;38224;50.950;4.100;2023-03-01T05:39:24;25.60;;;14.27;;
52268;SDS011;38224;50.950;4.100;2023-03-01T05:41:57;21.88;;;12.75;;
52268;SDS011;38224;50.950;4.100;2023-03-01T05:44:22;26.63;;;14.07;;
52268;SDS011;38224;50.950;4.100;2023-03-01T05:46:48;22.63;;;14.20;;
52268;SDS011;38224;50.950;4.100;2023-03-01T05:49:14;20.45;;;13.13;;
52268;SDS011;38224;50.950;4.100;2023-03-01T05:51:40;24.88;;;14.65;;
52268;SDS011;38224;50.950;4.100;2023-03-01T05:54:06;32.83;;;14.35;;
52268;SDS011;38224;50.950;4.100;2023-03-01T05:56:32;28.77;;;15.23;;
52268;SDS011;38224;50.950;4.100;2023-03-01T05:58:57;22.33;;;13.98;;
52268;SDS011;38224;50.950;4.100;2023-03-01T06:01:23;27.47;;;14.67;;
52268;SDS011;38224;50.950;4.100;2023-03-01T06:03:48;23.93;;;14.43;;
52268;SDS011;38224;50.950;4.100;2023-03-01T06:06:13;25.33;;;13.40;;
52268;SDS011;38224;50.950;4.100;2023-03-01T06:08:38;23.43;;;15.57;;
52268;SDS011;38224;50.950;4.100;2023-03-01T06:11:04;26.03;;;14.83;;
52268;SDS011;38224;50.950;4.100;2023-03-01T06:13:30;23.80;;;14.25;;
52268;SDS011;38224;50.950;4.100;2023-03-01T06:15:55;23.40;;;13.77;;
52268;SDS011;38224;50.950;4.100;2023-03-01T06:18:20;25.93;;;16.00;;
52268;SDS011;38224;50.950;4.100;2023-03-01T06:20:51;24.10;;;15.27;;
52268;SDS011;38224;50.950;4.100;2023-03-01T06:23:17;24.17;;;14.82;;
52268;SDS011;38224;50.950;4.100;2023-03-01T06:25:42;29.73;;;15.93;;
52268;SDS011;38224;50.950;4.100;2023-03-01T06:28:07;27.45;;;15.25;;
52268;SDS011;38224;50.950;4.100;2023-03-01T06:30:32;67.63;;;31.33;;
52268;SDS011;38224;50.950;4.100;2023-03-01T06:32:58;34.88;;;17.17;;
52268;SDS011;38224;50.950;4.100;2023-03-01T06:35:26;31.58;;;18.52;;
52268;SDS011;38224;50.950;4.100;2023-03-01T06:37:54;73.57;;;31.50;;
52268;SDS011;38224;50.950;4.100;2023-03-01T06:40:20;226.90;;;102.50;;
52268;SDS011;38224;50.950;4.100;2023-03-01T06:42:48;264.60;;;105.82;;
52268;SDS011;38224;50.950;4.100;2023-03-01T06:45:16;181.57;;;81.13;;
52268;SDS011;38224;50.950;4.100;2023-03-01T06:47:41;86.75;;;41.47;;
52268;SDS011;38224;50.950;4.100;2023-03-01T06:50:07;61.73;;;35.60;;
52268;SDS011;38224;50.950;4.100;2023-03-01T06:52:32;55.53;;;27.15;;
52268;SDS011;38224;50.950;4.100;2023-03-01T06:54:57;23.65;;;15.02;;
52268;SDS011;38224;50.950;4.100;2023-03-01T06:57:23;29.85;;;15.27;;
52268;SDS011;38224;50.950;4.100;2023-03-01T06:59:48;31.45;;;15.95;;
52268;SDS011;38224;50.950;4.100;2023-03-01T07:02:14;28.17;;;14.80;;
52268;SDS011;38224;50.950;4.100;2023-03-01T07:04:40;26.35;;;15.57;;
52268;SDS011;38224;50.950;4.100;2023-03-01T07:07:05;24.30;;;14.82;;
52268;SDS011;38224;50.950;4.100;2023-03-01T07:09:31;23.83;;;14.07;;
52268;SDS011;38224;50.950;4.100;2023-03-01T07:11:56;30.05;;;15.60;;
52268;SDS011;38224;50.950;4.100;2023-03-01T07:14:22;23.70;;;14.63;;
52268;SDS011;38224;50.950;4.100;2023-03-01T07:16:49;24.95;;;14.15;;
52268;SDS011;38224;50.950;4.100;2023-03-01T07:19:14;27.88;;;14.18;;
52268;SDS011;38224;50.950;4.100;2023-03-01T07:21:40;24.50;;;15.35;;
52268;SDS011;38224;50.950;4.100;2023-03-01T07:24:06;30.63;;;13.93;;
52268;SDS011;38224;50.950;4.100;2023-03-01T07:26:31;26.73;;;14.07;;
52268;SDS011;38224;50.950;4.100;2023-03-01T07:28:58;24.98;;;15.38;;
52268;SDS011;38224;50.950;4.100;2023-03-01T07:31:24;21.60;;;14.30;;
52268;SDS011;38224;50.950;4.100;2023-03-01T07:33:51;25.90;;;14.52;;
52268;SDS011;38224;50.950;4.100;2023-03-01T07:36:16;22.65;;;13.82;;
52268;SDS011;38224;50.950;4.100;2023-03-01T07:38:41;25.35;;;13.50;;
52268;SDS011;38224;50.950;4.100;2023-03-01T07:41:06;25.73;;;13.20;;
52268;SDS011;38224;50.950;4.100;2023-03-01T07:43:32;20.70;;;13.73;;
52268;SDS011;38224;50.950;4.100;2023-03-01T07:46:01;17.63;;;12.07;;
52268;SDS011;38224;50.950;4.100;2023-03-01T07:48:26;20.58;;;12.88;;
52268;SDS011;38224;50.950;4.100;2023-03-01T07:50:52;25.23;;;13.15;;
52268;SDS011;38224;50.950;4.100;2023-03-01T07:53:17;20.30;;;12.30;;
52268;SDS011;38224;50.950;4.100;2023-03-01T07:55:42;25.97;;;14.47;;
52268;SDS011;38224;50.950;4.100;2023-03-01T07:58:08;28.13;;;14.07;;
52268;SDS011;38224;50.950;4.100;2023-03-01T08:00:33;29.05;;;17.13;;
52268;SDS011;38224;50.950;4.100;2023-03-01T08:02:59;22.77;;;14.52;;
52268;SDS011;38224;50.950;4.100;2023-03-01T08:05:24;29.38;;;14.45;;
52268;SDS011;38224;50.950;4.100;2023-03-01T08:07:49;23.17;;;13.67;;
52268;SDS011;38224;50.950;4.100;2023-03-01T08:10:15;18.63;;;11.43;;
52268;SDS011;38224;50.950;4.100;2023-03-01T08:12:40;18.75;;;11.32;;
52268;SDS011;38224;50.950;4.100;2023-03-01T08:15:05;20.37;;;11.73;;
52268;SDS011;38224;50.950;4.100;2023-03-01T08:17:31;16.60;;;10.90;;
52268;SDS011;38224;50.950;4.100;2023-03-01T08:19:56;20.38;;;9.75;;
52268;SDS011;38224;50.950;4.100;2023-03-01T08:22:21;16.70;;;9.80;;
52268;SDS011;38224;50.950;4.100;2023-03-01T08:24:47;21.13;;;9.88;;
52268;SDS011;38224;50.950;4.100;2023-03-01T08:27:12;39.58;;;18.58;;
52268;SDS011;38224;50.950;4.100;2023-03-01T08:29:39;80.00;;;30.92;;
52268;SDS011;38224;50.950;4.100;2023-03-01T08:32:04;119.43;;;53.30;;
52268;SDS011;38224;50.950;4.100;2023-03-01T08:34:29;51.33;;;24.07;;
52268;SDS011;38224;50.950;4.100;2023-03-01T08:36:56;64.53;;;39.95;;
52268;SDS011;38224;50.950;4.100;2023-03-01T08:39:21;43.23;;;27.20;;
52268;SDS011;38224;50.950;4.100;2023-03-01T08:41:46;17.03;;;9.70;;
52268;SDS011;38224;50.950;4.100;2023-03-01T08:44:12;17.67;;;9.10;;
52268;SDS011;38224;50.950;4.100;2023-03-01T08:46:39;15.43;;;11.68;;
52268;SDS011;38224;50.950;4.100;2023-03-01T08:49:09;25.83;;;14.85;;
52268;SDS011;38224;50.950;4.100;2023-03-01T08:51:35;11.07;;;8.60;;
52268;SDS011;38224;50.950;4.100;2023-03-01T08:54:04;16.88;;;8.38;;
52268;SDS011;38224;50.950;4.100;2023-03-01T08:56:29;11.15;;;8.13;;
52268;SDS011;38224;50.950;4.100;2023-03-01T08:58:55;15.10;;;8.70;;
52268;SDS011;38224;50.950;4.100;2023-03-01T09:01:20;13.23;;;8.50;;
52268;SDS011;38224;50.950;4.100;2023-03-01T09:03:45;13.93;;;8.40;;
52268;SDS011;38224;50.950;4.100;2023-03-01T09:06:11;19.13;;;9.40;;
52268;SDS011;38224;50.950;4.100;2023-03-01T09:08:37;16.02;;;9.43;;
52268;SDS011;38224;50.950;4.100;2023-03-01T09:11:03;13.77;;;8.30;;
52268;SDS011;38224;50.950;4.100;2023-03-01T09:13:28;12.50;;;9.00;;
52268;SDS011;38224;50.950;4.100;2023-03-01T09:15:56;12.88;;;8.55;;
52268;SDS011;38224;50.950;4.100;2023-03-01T09:18:21;19.30;;;9.02;;
52268;SDS011;38224;50.950;4.100;2023-03-01T09:20:46;14.20;;;9.60;;
52268;SDS011;38224;50.950;4.100;2023-03-01T09:23:11;12.43;;;8.80;;
52268;SDS011;38224;50.950;4.100;2023-03-01T09:25:37;16.83;;;9.60;;
52268;SDS011;38224;50.950;4.100;2023-03-01T09:28:02;18.67;;;9.07;;
52268;SDS011;38224;50.950;4.100;2023-03-01T09:30:28;17.10;;;9.30;;
52268;SDS011;38224;50.950;4.100;2023-03-01T09:32:55;11.98;;;8.23;;
52268;SDS011;38224;50.950;4.100;2023-03-01T09:35:21;15.65;;;9.38;;
52268;SDS011;38224;50.950;4.100;2023-03-01T09:37:47;14.35;;;8.77;;
52268;SDS011;38224;50.950;4.100;2023-03-01T09:40:15;13.30;;;9.02;;
52268;SDS011;38224;50.950;4.100;2023-03-01T09:43:25;12.93;;;8.85;;
52268;SDS011;38224;50.950;4.100;2023-03-01T09:45:35;13.10;;;8.40;;
52268;SDS011;38224;50.950;4.100;2023-03-01T09:48:00;23.00;;;10.02;;
52268;SDS011;38224;50.950;4.100;2023-03-01T09:50:28;12.80;;;7.88;;
52268;SDS011;38224;50.950;4.100;2023-03-01T09:53:07;12.93;;;8.10;;
52268;SDS011;38224;50.950;4.100;2023-03-01T10:00:44;14.57;;;9.18;;
52268;SDS011;38224;50.950;4.100;2023-03-01T10:03:14;17.00;;;9.50;;
52268;SDS011;38224;50.950;4.100;2023-03-01T10:05:44;13.65;;;9.52;;
52268;SDS011;38224;50.950;4.100;2023-03-01T10:10:36;14.33;;;8.47;;
52268;SDS011;38224;50.950;4.100;2023-03-01T10:13:16;14.43;;;9.00;;
52268;SDS011;38224;50.950;4.100;2023-03-01T10:15:47;16.85;;;10.52;;
52268;SDS011;38224;50.950;4.100;2023-03-01T10:18:17;14.48;;;9.20;;
52268;SDS011;38224;50.950;4.100;2023-03-01T10:20:54;17.05;;;8.63;;
52268;SDS011;38224;50.950;4.100;2023-03-01T10:23:22;14.70;;;8.73;;
52268;SDS011;38224;50.950;4.100;2023-03-01T10:31:00;13.57;;;9.30;;
52268;SDS011;38224;50.950;4.100;2023-03-01T10:33:26;14.85;;;8.80;;
52268;SDS011;38224;50.950;4.100;2023-03-01T10:35:52;16.00;;;9.32;;
52268;SDS011;38224;50.950;4.100;2023-03-01T10:38:18;12.95;;;8.77;;
52268;SDS011;38224;50.950;4.100;2023-03-01T10:40:55;12.02;;;8.55;;
52268;SDS011;38224;50.950;4.100;2023-03-01T10:43:24;13.45;;;8.43;;
52268;SDS011;38224;50.950;4.100;2023-03-01T10:45:50;19.90;;;11.82;;
52268;SDS011;38224;50.950;4.100;2023-03-01T10:48:17;48.65;;;18.73;;
52268;SDS011;38224;50.950;4.100;2023-03-01T10:50:45;14.50;;;10.70;;
52268;SDS011;38224;50.950;4.100;2023-03-01T10:56:02;16.90;;;9.65;;
52268;SDS011;38224;50.950;4.100;2023-03-01T10:58:28;18.42;;;8.75;;
52268;SDS011;38224;50.950;4.100;2023-03-01T11:00:58;14.98;;;8.07;;
52268;SDS011;38224;50.950;4.100;2023-03-01T11:03:28;15.65;;;8.60;;
52268;SDS011;38224;50.950;4.100;2023-03-01T11:11:05;21.20;;;9.13;;
52268;SDS011;38224;50.950;4.100;2023-03-01T11:13:31;19.13;;;9.60;;
52268;SDS011;38224;50.950;4.100;2023-03-01T11:16:06;16.67;;;8.67;;
52268;SDS011;38224;50.950;4.100;2023-03-01T11:18:32;15.02;;;9.02;;
52268;SDS011;38224;50.950;4.100;2023-03-01T11:20:58;12.63;;;8.55;;
52268;SDS011;38224;50.950;4.100;2023-03-01T11:23:25;16.05;;;8.65;;
52268;SDS011;38224;50.950;4.100;2023-03-01T11:25:58;17.73;;;9.02;;
52268;SDS011;38224;50.950;4.100;2023-03-01T11:28:25;12.70;;;8.90;;
52268;SDS011;38224;50.950;4.100;2023-03-01T11:31:05;15.40;;;9.40;;
52268;SDS011;38224;50.950;4.100;2023-03-01T11:33:48;13.30;;;8.25;;
52268;SDS011;38224;50.950;4.100;2023-03-01T11:36:27;17.27;;;8.82;;
52268;SDS011;38224;50.950;4.100;2023-03-01T11:38:55;14.48;;;8.90;;
52268;SDS011;38224;50.950;4.100;2023-03-01T11:41:21;12.45;;;8.50;;
52268;SDS011;38224;50.950;4.100;2023-03-01T11:43:51;12.27;;;8.30;;
52268;SDS011;38224;50.950;4.100;2023-03-01T11:51:20;14.77;;;8.55;;
52268;SDS011;38224;50.950;4.100;2023-03-01T11:54:00;13.60;;;8.65;;
52268;SDS011;38224;50.950;4.100;2023-03-01T11:56:33;14.63;;;8.85;;
52268;SDS011;38224;50.950;4.100;2023-03-01T12:01:27;14.77;;;8.80;;
52268;SDS011;38224;50.950;4.100;2023-03-01T12:04:03;14.32;;;7.88;;
52268;SDS011;38224;50.950;4.100;2023-03-01T12:06:52;12.45;;;7.53;;
52268;SDS011;38224;50.950;4.100;2023-03-01T12:14:28;15.13;;;8.00;;
52268;SDS011;38224;50.950;4.100;2023-03-01T12:24:36;17.90;;;8.57;;
52268;SDS011;38224;50.950;4.100;2023-03-01T12:27:18;12.73;;;8.20;;
52268;SDS011;38224;50.950;4.100;2023-03-01T12:35:23;14.15;;;7.93;;
52268;SDS011;38224;50.950;4.100;2023-03-01T12:37:55;17.73;;;7.93;;
52268;SDS011;38224;50.950;4.100;2023-03-01T12:40:28;12.95;;;7.63;;
52268;SDS011;38224;50.950;4.100;2023-03-01T12:50:44;13.88;;;8.05;;
52268;SDS011;38224;50.950;4.100;2023-03-01T12:56:11;12.45;;;8.27;;
52268;SDS011;38224;50.950;4.100;2023-03-01T13:11:35;12.85;;;9.05;;
52268;SDS011;38224;50.950;4.100;2023-03-01T13:16:44;12.60;;;8.05;;
52268;SDS011;38224;50.950;4.100;2023-03-01T13:19:15;10.68;;;7.40;;
52268;SDS011;38224;50.950;4.100;2023-03-01T13:21:40;10.73;;;7.63;;
52268;SDS011;38224;50.950;4.100;2023-03-01T13:24:23;12.15;;;7.68;;
52268;SDS011;38224;50.950;4.100;2023-03-01T13:32:32;12.77;;;7.57;;
52268;SDS011;38224;50.950;4.100;2023-03-01T13:34:58;15.30;;;8.75;;
52268;SDS011;38224;50.950;4.100;2023-03-01T13:37:34;16.80;;;10.27;;
52268;SDS011;38224;50.950;4.100;2023-03-01T13:40:01;24.13;;;13.70;;
52268;SDS011;38224;50.950;4.100;2023-03-01T13:42:40;16.20;;;10.60;;
52268;SDS011;38224;50.950;4.100;2023-03-01T13:45:23;19.52;;;10.10;;
52268;SDS011;38224;50.950;4.100;2023-03-01T13:48:02;12.55;;;8.95;;
52268;SDS011;38224;50.950;4.100;2023-03-01T13:50:28;12.90;;;8.18;;
52268;SDS011;38224;50.950;4.100;2023-03-01T13:53:02;25.65;;;13.80;;
52268;SDS011;38224;50.950;4.100;2023-03-01T13:55:51;14.25;;;9.73;;
52268;SDS011;38224;50.950;4.100;2023-03-01T13:58:30;14.85;;;9.05;;
52268;SDS011;38224;50.950;4.100;2023-03-01T14:03:21;13.32;;;7.30;;
52268;SDS011;38224;50.950;4.100;2023-03-01T14:08:34;14.07;;;7.75;;
52268;SDS011;38224;50.950;4.100;2023-03-01T14:21:13;10.88;;;7.75;;
52268;SDS011;38224;50.950;4.100;2023-03-01T14:23:39;19.98;;;8.50;;
52268;SDS011;38224;50.950;4.100;2023-03-01T14:26:07;15.38;;;8.48;;
52268;SDS011;38224;50.950;4.100;2023-03-01T14:28:33;12.43;;;8.98;;
52268;SDS011;38224;50.950;4.100;2023-03-01T14:31:21;14.43;;;8.73;;
52268;SDS011;38224;50.950;4.100;2023-03-01T14:33:54;13.50;;;8.88;;
52268;SDS011;38224;50.950;4.100;2023-03-01T14:36:25;13.32;;;8.50;;
52268;SDS011;38224;50.950;4.100;2023-03-01T14:38:50;13.98;;;8.18;;
52268;SDS011;38224;50.950;4.100;2023-03-01T14:41:17;16.40;;;8.77;;
52268;SDS011;38224;50.950;4.100;2023-03-01T14:43:47;13.88;;;7.93;;
52268;SDS011;38224;50.950;4.100;2023-03-01T14:46:21;11.40;;;7.93;;
52268;SDS011;38224;50.950;4.100;2023-03-01T14:48:52;16.70;;;7.63;;
52268;SDS011;38224;50.950;4.100;2023-03-01T14:51:19;17.00;;;9.32;;
52268;SDS011;38224;50.950;4.100;2023-03-01T14:53:44;14.50;;;7.50;;
52268;SDS011;38224;50.950;4.100;2023-03-01T14:56:14;12.18;;;7.95;;
52268;SDS011;38224;50.950;4.100;2023-03-01T14:58:39;11.50;;;7.78;;
52268;SDS011;38224;50.950;4.100;2023-03-01T15:01:05;15.13;;;8.33;;
52268;SDS011;38224;50.950;4.100;2023-03-01T15:03:34;13.23;;;8.23;;
52268;SDS011;38224;50.950;4.100;2023-03-01T15:06:00;12.95;;;6.82;;
52268;SDS011;38224;50.950;4.100;2023-03-01T15:08:27;19.50;;;8.27;;
52268;SDS011;38224;50.950;4.100;2023-03-01T15:11:15;14.68;;;8.40;;
52268;SDS011;38224;50.950;4.100;2023-03-01T15:13:43;12.70;;;7.80;;
52268;SDS011;38224;50.950;4.100;2023-03-01T15:16:11;11.80;;;8.20;;
52268;SDS011;38224;50.950;4.100;2023-03-01T15:18:38;10.65;;;7.47;;
52268;SDS011;38224;50.950;4.100;2023-03-01T15:21:09;13.95;;;8.45;;
52268;SDS011;38224;50.950;4.100;2023-03-01T15:23:40;11.23;;;7.68;;
52268;SDS011;38224;50.950;4.100;2023-03-01T15:26:05;13.98;;;7.63;;
52268;SDS011;38224;50.950;4.100;2023-03-01T15:28:34;12.55;;;8.77;;
52268;SDS011;38224;50.950;4.100;2023-03-01T15:33:29;12.80;;;8.05;;
52268;SDS011;38224;50.950;4.100;2023-03-01T15:36:29;12.90;;;7.93;;
52268;SDS011;38224;50.950;4.100;2023-03-01T15:38:53;14.55;;;8.90;;
52268;SDS011;38224;50.950;4.100;2023-03-01T15:43:47;18.63;;;8.63;;
52268;SDS011;38224;50.950;4.100;2023-03-01T15:46:25;15.40;;;8.25;;
52268;SDS011;38224;50.950;4.100;2023-03-01T15:48:53;11.88;;;7.88;;
52268;SDS011;38224;50.950;4.100;2023-03-01T15:51:28;13.95;;;8.15;;
52268;SDS011;38224;50.950;4.100;2023-03-01T15:53:54;15.40;;;8.32;;
52268;SDS011;38224;50.950;4.100;2023-03-01T15:56:20;12.68;;;7.50;;
52268;SDS011;38224;50.950;4.100;2023-03-01T15:58:45;14.75;;;8.18;;
52268;SDS011;38224;50.950;4.100;2023-03-01T16:01:14;20.60;;;8.60;;
52268;SDS011;38224;50.950;4.100;2023-03-01T16:03:40;15.10;;;7.32;;
52268;SDS011;38224;50.950;4.100;2023-03-01T16:06:05;15.43;;;8.53;;
52268;SDS011;38224;50.950;4.100;2023-03-01T16:08:30;13.40;;;8.02;;
52268;SDS011;38224;50.950;4.100;2023-03-01T16:10:56;18.23;;;8.70;;
52268;SDS011;38224;50.950;4.100;2023-03-01T16:13:21;12.97;;;8.00;;
52268;SDS011;38224;50.950;4.100;2023-03-01T16:15:46;10.43;;;8.10;;
52268;SDS011;38224;50.950;4.100;2023-03-01T16:18:12;14.68;;;7.97;;